Latest Weather Observations for Maria Island

IDT60801

Issued at 8:05 pm EST Monday 22 September 2014 (issued every 30 minutes, with the page automatically refreshed every 10 minutes)

About weather observations | Map of weather stations | Latest weather observations for TAS | Other Formats
Station Details ID: 092124 Name: MARIA ISLAND (POINT LESUEUR) Lat: -42.66 Lon: 148.02 Height: 28.0 m
Data from the previous 72 hours. | See also: Recent months at Maria Island
Date/Time
EST
Temp
°C
App
Temp
°C
Dew
Point
Rel
Hum
%
Delta-T
°C
Wind Press
QNH
hPa
Press
MSL
hPa
Rain
since 9 am
mm
Dir
 
Spd
km/h
Gust
km/h
Spd
kts
Gust
kts
22/08:00pm 15.4 10.0 8.2 62 3.6 WNW 26 37 14 20 1022.5 1022.5 0.2
22/07:30pm 16.0 14.3 8.5 61 3.8 N 7 13 4 7 1022.4 1022.4 0.2
22/07:00pm 15.9 13.9 8.6 62 3.7 NNW 9 15 5 8 1022.2 1022.2 0.2
22/06:30pm 15.1 13.5 10.3 73 2.5 NNW 9 13 5 7 1021.8 1021.8 0.2
22/06:00pm 15.2 12.1 10.4 73 2.5 N 17 22 9 12 1021.6 1021.6 0.2
22/05:30pm 16.6 11.9 9.3 62 3.8 N 24 28 13 15 1021.1 1021.1 0.2
22/05:00pm 17.5 13.3 8.4 55 4.7 N 20 22 11 12 1021.1 1021.1 0.2
22/04:30pm 18.6 14.0 6.4 45 6.1 N 20 22 11 12 1021.0 1021.0 0.2
22/04:00pm 18.4 13.2 7.2 48 5.6 N 24 26 13 14 1021.0 1021.0 0.2
22/03:30pm 19.0 13.7 6.8 45 6.1 N 24 26 13 14 1021.1 1021.1 0.2
22/03:00pm 19.0 13.7 6.8 45 6.1 N 24 28 13 15 1021.3 1021.3 0.2
22/02:30pm 19.1 13.4 6.6 44 6.3 N 26 32 14 17 1021.7 1021.7 0.2
22/02:00pm 19.1 12.6 6.6 44 6.2 N 30 33 16 18 1022.0 1022.0 0.2
22/01:30pm 19.1 13.1 7.2 46 6.0 N 28 30 15 16 1022.4 1022.4 0.2
22/01:00pm 18.8 13.4 6.3 44 6.2 N 24 26 13 14 1022.8 1022.8 0.2
22/12:30pm 18.0 11.6 7.1 49 5.5 N 30 33 16 18 1023.3 1023.3 0.2
22/12:00pm 17.4 12.3 7.5 52 5.0 N 24 32 13 17 1023.9 1023.9 0.2
22/11:30am 16.8 11.7 7.7 55 4.6 N 24 28 13 15 1024.3 1024.3 0.0
22/11:00am 16.8 12.3 8.5 58 4.2 N 22 28 12 15 1024.7 1024.7 0.0
22/10:30am 16.5 12.4 8.5 59 4.1 N 20 24 11 13 1025.1 1025.1 0.0
22/10:00am 15.0 10.8 9.6 70 2.8 N 22 24 12 13 1025.6 1025.6 0.0
22/09:30am 14.2 9.4 10.4 78 2.0 N 26 28 14 15 1025.9 1025.9 0.0
22/09:00am 13.0 9.2 11.2 89 0.9 N 22 28 12 15 1026.3 1026.3 0.0
22/08:30am 11.5 7.5 10.4 93 0.6 N 22 26 12 14 1026.6 1026.6 0.0
22/08:00am 11.4 7.8 10.0 91 0.7 N 19 20 10 11 1026.8 1026.9 0.0
22/07:30am 11.1 8.6 9.7 91 0.7 NNW 13 17 7 9 1026.8 1026.9 0.0
22/07:00am 10.6 7.6 9.2 91 0.7 NW 15 19 8 10 1026.8 1026.9 0.0
22/06:30am 10.3 7.2 8.9 91 0.7 NW 15 19 8 10 1026.6 1026.6 0.0
22/06:00am 9.6 6.4 8.4 92 0.6 NW 15 19 8 10 1026.4 1026.4 0.0
22/05:30am 9.3 6.0 7.9 91 0.7 NNW 15 19 8 10 1026.2 1026.2 0.0
22/05:00am 8.6 6.0 7.7 94 0.4 NNW 11 15 6 8 1026.2 1026.2 0.0
22/04:30am 8.9 7.7 8.0 94 0.4 NNW 4 4 2 2 1026.3 1026.3 0.0
22/04:00am 9.4 8.6 8.3 93 0.5 NNW 2 4 1 2 1026.2 1026.2 0.0
22/03:30am 9.5 8.0 8.4 93 0.5 WNW 6 7 3 4 1026.1 1026.1 0.0
22/03:00am 9.2 7.4 8.1 93 0.5 WNW 7 9 4 5 1026.1 1026.1 0.0
22/02:30am 9.0 6.8 7.9 93 0.5 NW 9 11 5 6 1026.1 1026.1 0.0
22/02:00am 9.5 7.4 8.4 93 0.5 NNW 9 11 5 6 1026.3 1026.3 0.0
22/01:30am 9.6 7.9 8.4 92 0.6 NNW 7 9 4 5 1026.6 1026.6 0.0
22/01:00am 9.9 7.5 8.5 91 0.7 NNW 11 15 6 8 1026.8 1026.9 0.0
22/12:30am 9.7 7.6 8.1 90 0.8 NW 9 13 5 7 1026.8 1026.9 0.0
22/12:00am 9.3 7.6 7.7 90 0.8 NNW 6 9 3 5 1026.8 1026.9 0.0
 
Date/Time
EST
Temp
°C
App
Temp
°C
Dew
Point
Rel
Hum
%
Delta-T
°C
Wind Press
QNH
hPa
Press
MSL
hPa
Rain
since 9 am
mm
Dir
 
Spd
km/h
Gust
km/h
Spd
kts
Gust
kts
21/11:30pm 9.3 7.7 8.1 92 0.6 WNW 6 7 3 4 1027.1 1027.2 0.0
21/11:00pm 10.7 9.8 9.3 91 0.7 W 4 6 2 3 1027.1 1027.2 0.0
21/10:30pm 10.6 10.0 9.0 90 0.8 W 2 4 1 2 1027.3 1027.4 0.0
21/10:00pm 10.9 9.5 9.0 88 0.9 NW 6 6 3 3 1027.3 1027.4 0.0
21/09:30pm 11.1 10.1 8.7 85 1.2 NNW 4 7 2 4 1027.3 1027.4 0.0
21/09:00pm 11.5 10.4 8.4 81 1.5 NNW 4 7 2 4 1027.3 1027.4 0.0
21/08:30pm 12.1 12.1 9.8 86 1.2 CALM 0 4 0 2 1027.2 1027.3 0.0
21/08:00pm 12.1 10.7 9.5 84 1.3 E 7 9 4 5 1027.1 1027.2 0.0
21/07:30pm 12.2 10.5 9.8 85 1.2 E 9 13 5 7 1026.8 1026.9 0.0
21/07:00pm 12.5 10.5 10.0 85 1.3 E 11 15 6 8 1026.3 1026.3 0.0
21/06:30pm 13.1 10.6 9.7 80 1.7 E 13 15 7 8 1026.0 1026.0 0.0
21/06:00pm 13.9 12.6 9.1 73 2.4 N 6 7 3 4 1025.7 1025.7 0.0
21/05:30pm 15.5 14.4 8.3 62 3.6 SSW 4 6 2 3 1025.3 1025.3 0.0
21/05:00pm 15.8 13.6 7.8 59 4.0 SSW 9 15 5 8 1025.2 1025.2 0.0
21/04:30pm 15.3 11.9 9.2 67 3.1 S 17 19 9 10 1024.9 1024.9 0.0
21/04:00pm 16.0 12.9 8.7 62 3.7 S 15 19 8 10 1024.8 1024.8 0.0
21/03:30pm 15.9 12.5 9.1 64 3.5 S 17 22 9 12 1024.7 1024.7 0.0
21/03:00pm 16.2 12.0 8.4 60 3.9 S 20 24 11 13 1024.7 1024.7 0.0
21/02:30pm 16.5 13.4 9.0 61 3.9 S 15 20 8 11 1024.6 1024.6 0.0
21/02:00pm 16.7 13.0 7.9 56 4.4 S 17 20 9 11 1024.6 1024.6 0.0
21/01:30pm 17.3 14.8 8.2 55 4.6 S 11 17 6 9 1024.8 1024.8 0.0
21/01:00pm 17.5 15.2 5.8 46 5.7 S 7 9 4 5 1025.0 1025.0 0.0
21/12:30pm 17.6 15.7 6.8 49 5.4 S 6 7 3 4 1025.1 1025.1 0.0
21/12:00pm 17.2 15.4 5.5 46 5.6 SSW 4 9 2 5 1025.3 1025.3 0.0
21/11:30am 16.3 14.1 5.3 48 5.3 SSW 6 7 3 4 1025.6 1025.6 0.0
21/11:00am 17.1 15.6 6.6 50 5.2 S 4 9 2 5 1025.7 1025.7 0.0
21/10:30am 15.5 13.3 5.1 50 4.9 SW 6 11 3 6 1025.8 1025.8 0.0
21/10:00am 15.7 13.6 6.7 55 4.4 WNW 7 13 4 7 1026.0 1026.0 0.0
21/09:30am 14.8 12.9 6.9 59 3.9 NW 6 7 3 4 1025.9 1025.9 0.0
21/09:00am 13.9 11.9 6.3 60 3.6 WNW 6 7 3 4 1026.0 1026.0 0.0
21/08:30am 13.4 11.3 6.5 63 3.3 W 7 13 4 7 1025.7 1025.7 0.0
21/08:00am 12.8 9.1 6.2 64 3.1 W 15 19 8 10 1025.5 1025.5 0.0
21/07:30am 12.4 8.7 6.2 66 2.9 W 15 22 8 12 1025.2 1025.2 0.0
21/07:00am 11.8 9.1 5.4 65 2.9 W 9 13 5 7 1025.0 1025.0 0.0
21/06:30am 11.5 8.3 4.9 64 3.0 W 11 17 6 9 1024.7 1024.7 0.0
21/06:00am 10.9 6.9 4.8 66 2.7 NW 15 19 8 10 1024.4 1024.4 0.0
21/05:30am 10.8 7.1 4.7 66 2.8 NW 13 17 7 9 1024.3 1024.3 0.0
21/05:00am 10.6 6.9 4.5 66 2.7 NW 13 17 7 9 1024.1 1024.1 0.0
21/04:30am 10.5 6.4 4.4 66 2.7 NW 15 20 8 11 1024.2 1024.2 0.0
21/04:00am 10.5 5.6 4.2 65 2.8 NW 19 24 10 13 1024.1 1024.1 0.0
21/03:30am 10.4 5.3 4.3 66 2.7 NW 20 26 11 14 1024.1 1024.1 0.0
21/03:00am 10.4 5.9 4.1 65 2.8 WNW 17 24 9 13 1024.4 1024.4 0.0
21/02:30am 10.4 6.2 3.7 63 2.9 W 15 22 8 12 1024.7 1024.7 0.0
21/02:00am 10.7 4.5 4.2 64 2.9 W 26 33 14 18 1025.1 1025.1 0.0
21/01:30am 10.6 5.7 4.1 64 2.9 WSW 19 26 10 14 1025.2 1025.2 0.0
21/01:00am 10.6 6.8 4.1 64 2.9 WSW 13 20 7 11 1025.1 1025.1 0.0
21/12:30am 10.6 6.1 4.1 64 2.9 W 17 24 9 13 1024.9 1024.9 0.0
21/12:00am 10.6 6.6 4.7 67 2.6 W 15 22 8 12 1025.2 1025.2 0.0
 
Date/Time
EST
Temp
°C
App
Temp
°C
Dew
Point
Rel
Hum
%
Delta-T
°C
Wind Press
QNH
hPa
Press
MSL
hPa
Rain
since 9 am
mm
Dir
 
Spd
km/h
Gust
km/h
Spd
kts
Gust
kts
20/11:30pm 10.6 5.7 4.3 65 2.8 W 19 24 10 13 1025.2 1025.2 0.0
20/11:00pm 11.0 6.0 4.5 64 2.9 WSW 20 26 11 14 1025.5 1025.5 0.0
20/10:30pm 10.9 6.4 4.1 63 3.0 W 17 22 9 12 1025.5 1025.5 0.0
20/10:00pm 10.9 6.4 4.4 64 2.9 WSW 17 22 9 12 1025.5 1025.5 0.0
20/09:30pm 11.0 7.6 4.0 62 3.1 W 11 20 6 11 1025.4 1025.4 0.0
20/09:00pm 11.1 6.6 4.3 63 3.0 W 17 22 9 12 1025.4 1025.4 0.0
20/08:30pm 11.7 5.5 4.4 61 3.3 W 26 33 14 18 1025.1 1025.1 0.0
20/08:00pm 11.9 6.5 4.6 61 3.3 WSW 22 35 12 19 1024.9 1024.9 0.0
20/07:30pm 12.3 7.3 4.8 60 3.4 WSW 20 28 11 15 1024.6 1024.6 0.0
20/07:00pm 12.5 7.7 5.4 62 3.3 WSW 20 24 11 13 1023.8 1023.8 0.0
20/06:30pm 12.7 8.1 6.5 66 3.0 W 20 22 11 12 1023.5 1023.5 0.0
20/06:00pm 12.6 8.2 6.4 66 2.9 SW 19 22 10 12 1023.2 1023.2 0.0
20/05:30pm 13.2 6.5 7.2 67 2.9 SSW 32 35 17 19 1023.3 1023.3 0.0
20/05:00pm 13.2 7.1 6.8 65 3.1 SSW 28 33 15 18 1022.7 1022.7 0.0
20/04:30pm 13.9 6.9 6.7 62 3.5 SSW 33 43 18 23 1022.5 1022.5 0.0
20/04:00pm 14.4 8.1 7.2 62 3.5 SSW 30 35 16 19 1022.3 1022.3 0.0
20/03:30pm 13.9 6.6 7.4 65 3.2 SSW 35 41 19 22 1022.1 1022.1 0.0
20/03:00pm 13.8 6.6 7.8 67 3.0 S 35 44 19 24 1022.0 1022.0 0.0
20/02:30pm 14.1 8.4 8.5 69 2.8 S 28 35 15 19 1021.9 1021.9 0.0
20/02:00pm 15.3 9.2 8.1 62 3.6 S 30 37 16 20 1021.7 1021.7 0.0
20/01:30pm 14.7 8.2 8.2 65 3.3 S 32 37 17 20 1021.6 1021.6 0.0
20/01:00pm 14.6 8.0 7.9 64 3.3 S 32 37 17 20 1021.7 1021.7 0.0
20/12:30pm 14.2 8.4 7.9 66 3.1 SSW 28 35 15 19 1021.9 1021.9 0.0
20/12:00pm 13.6 8.2 8.2 70 2.7 S 26 33 14 18 1022.0 1022.0 0.0
20/11:30am 14.3 7.7 7.8 65 3.2 S 32 37 17 20 1022.1 1022.1 0.0
20/11:00am 14.2 8.7 7.5 64 3.3 SSW 26 32 14 17 1022.2 1022.2 0.0
20/10:30am 14.2 10.1 7.7 65 3.2 S 19 22 10 12 1022.4 1022.4 0.0
20/10:00am 13.6 9.7 7.2 65 3.1 SSW 17 22 9 12 1022.5 1022.5 0.0
20/09:30am 13.0 8.7 7.7 70 2.6 SSW 20 24 11 13 1022.6 1022.6 0.0
20/09:00am 12.5 7.4 7.8 73 2.3 SSW 24 28 13 15 1022.6 1022.6 0.0
20/08:30am 11.9 6.6 7.0 72 2.3 SSW 24 32 13 17 1022.4 1022.4 0.0
20/08:00am 11.7 5.3 7.0 73 2.2 SSW 30 37 16 20 1022.1 1022.1 0.0
20/07:30am 11.5 6.0 7.6 77 1.9 SSW 26 33 14 18 1021.9 1021.9 0.0
20/07:00am 11.1 6.0 7.6 79 1.7 SW 24 28 13 15 1021.6 1021.6 0.0
20/06:30am 10.4 3.9 8.0 85 1.2 SSW 32 35 17 19 1021.2 1021.2 0.0
20/06:00am 10.4 4.7 8.5 88 0.9 SSW 28 33 15 18 1021.0 1021.0 0.0
20/05:30am 10.8 4.5 8.9 88 0.9 SSW 32 39 17 21 1020.6 1020.6 0.0
20/05:00am 10.8 5.4 8.0 83 1.4 SSW 26 32 14 17 1020.0 1020.0 0.0
20/04:30am 10.8 5.6 7.3 79 1.7 SSW 24 28 13 15 1019.8 1019.8 0.0
20/04:00am 10.6 4.4 7.7 82 1.4 SSW 30 35 16 19 1019.5 1019.5 0.0
20/03:30am 11.1 4.4 7.2 77 1.9 SSW 32 37 17 20 1019.2 1019.2 0.0
20/03:00am 11.2 5.2 6.9 75 2.0 SSW 28 33 15 18 1018.8 1018.8 0.0
20/02:30am 11.4 4.3 6.3 71 2.4 SW 33 41 18 22 1018.4 1018.4 0.0
20/02:00am 11.6 3.3 6.3 70 2.5 SW 39 48 21 26 1018.4 1018.4 0.0
20/01:30am 11.6 5.1 6.5 71 2.4 SW 30 46 16 25 1018.5 1018.5 0.0
20/01:28am 11.4 5.3 6.5 72 2.3 SW 28 46 15 25 1018.5 1018.5 0.0
20/01:00am 11.2 7.3 6.9 75 2.0 SW 17 20 9 11 1019.0 1019.0 0.0
20/12:30am 10.9 6.6 7.2 78 1.8 SW 19 26 10 14 1018.8 1018.8 0.0
20/12:00am 10.9 6.1 7.2 78 1.8 SSW 22 28 12 15 1018.7 1018.7 0.0
 
Date/Time
EST
Temp
°C
App
Temp
°C
Dew
Point
Rel
Hum
%
Delta-T
°C
Wind Press
QNH
hPa
Press
MSL
hPa
Rain
since 9 am
mm
Dir
 
Spd
km/h
Gust
km/h
Spd
kts
Gust
kts
19/11:30pm 10.7 4.4 7.4 80 1.6 SW 30 37 16 20 1018.6 1018.6 0.0
19/11:00pm 10.8 3.6 7.7 81 1.5 SW 35 50 19 27 1018.5 1018.5 0.0
19/10:30pm 10.6 4.7 7.7 82 1.4 SW 28 35 15 19 1018.5 1018.5 0.0
19/10:00pm 11.3 5.7 7.2 76 2.0 SW 26 33 14 18 1018.2 1018.2 0.0
19/09:30pm 11.5 5.9 7.2 75 2.1 SW 26 30 14 16 1017.9 1017.9 0.0
19/09:00pm 11.1 6.3 7.4 78 1.8 SSW 22 32 12 17 1017.8 1017.8 0.0
19/08:30pm 11.9 4.9 7.0 72 2.3 SW 33 44 18 24 1017.6 1017.6 0.0

Other Formats:

Comma delimited format used in spreadsheet applications
http://www.bom.gov.au/fwo/IDT60801/IDT60801.95988.axf

JavaScript Object Notation format (JSON) in row-major order
http://www.bom.gov.au/fwo/IDT60801/IDT60801.95988.json